Observation data for Friona on 12/09/2018      Previous  Date  Next       Current Mesonet Observations  Soil Data  Daily Summary Page  Observations in Plain Language
KFAS 090600Z 26004KT M06/M06 A3029 RMK A01 T10591063  RH  097%=      5-min Rain = 0
KFAS 090605Z 26004KT M06/M06 A3029 RMK A01 T10591062  RH  098%=      5-min Rain = 0
KFAS 090610Z 26004KT M06/M07 A3028 RMK A01 T10611065  RH  097%=      5-min Rain = 0
KFAS 090615Z 26004KT M06/M07 A3028 RMK A01 T10621065  RH  097%=      5-min Rain = 0
KFAS 090620Z 25003KT M06/M06 A3029 RMK A01 T10611064  RH  098%=      5-min Rain = 0
KFAS 090625Z 25003KT M06/M07 A3029 RMK A01 T10621065  RH  098%=      5-min Rain = 0
KFAS 090630Z 25003KT M06/M07 A3029 RMK A01 T10621065  RH  098%=      5-min Rain = 0
KFAS 090635Z 25003KT M06/M06 A3029 RMK A01 T10611064  RH  098%=      5-min Rain = 0
KFAS 090640Z 25003KT M06/M06 A3029 RMK A01 T10601063  RH  098%=      5-min Rain = 0
KFAS 090645Z 24003KT M06/M06 A3028 RMK A01 T10591062  RH  098%=      5-min Rain = 0
KFAS 090650Z 25003KT M06/M06 A3028 RMK A01 T10611064  RH  098%=      5-min Rain = 0
KFAS 090655Z 25003KT M06/M07 A3028 RMK A01 T10631067  RH  097%=      5-min Rain = 0
KFAS 090700Z 29003KT M07/M07 A3028 RMK A01 T10681072  RH  097%=      5-min Rain = 0
KFAS 090705Z 28003KT M08/M08 A3028 RMK A01 T10751080  RH  096%=      5-min Rain = 0
KFAS 090710Z 28004KT M08/M08 A3028 RMK A01 T10751078  RH  097%=      5-min Rain = 0
KFAS 090715Z 28004KT M08/M08 A3028 RMK A01 T10751078  RH  097%=      5-min Rain = 0
KFAS 090720Z 28005KT M08/M08 A3028 RMK A01 T10761079  RH  097%=      5-min Rain = 0
KFAS 090725Z 27004KT M08/M08 A3028 RMK A01 T10751079  RH  097%=      5-min Rain = 0
KFAS 090730Z 27004KT M07/M08 A3027 RMK A01 T10741077  RH  097%=      5-min Rain = 0
KFAS 090735Z 27003KT M07/M08 A3027 RMK A01 T10721075  RH  098%=      5-min Rain = 0
KFAS 090740Z 28004KT M07/M07 A3028 RMK A01 T10711074  RH  098%=      5-min Rain = 0
KFAS 090745Z 29004KT M07/M08 A3028 RMK A01 T10741078  RH  097%=      5-min Rain = 0
KFAS 090750Z 28004KT M08/M08 A3028 RMK A01 T10781082  RH  097%=      5-min Rain = 0
KFAS 090755Z 30004KT M08/M08 A3028 RMK A01 T10781083  RH  097%=      5-min Rain = 0
KFAS 090800Z 31004KT M07/M08 A3028 RMK A01 T10741078  RH  097%=      5-min Rain = 0
KFAS 090805Z 31004KT M08/M08 A3028 RMK A01 T10751078  RH  097%=      5-min Rain = 0
KFAS 090810Z 32003KT M08/M08 A3028 RMK A01 T10781082  RH  097%=      5-min Rain = 0
KFAS 090815Z 31003KT M08/M09 A3028 RMK A01 T10801085  RH  096%=      5-min Rain = 0
KFAS 090820Z 32003KT M08/M08 A3028 RMK A01 T10791083  RH  097%=      5-min Rain = 0
KFAS 090825Z 33003KT M08/M08 A3028 RMK A01 T10771081  RH  097%=      5-min Rain = 0
KFAS 090830Z 33003KT M08/M08 A3028 RMK A01 T10761080  RH  097%=      5-min Rain = 0
KFAS 090835Z 32002KT M08/M08 A3028 RMK A01 T10781082  RH  097%=      5-min Rain = 0
KFAS 090840Z 29003KT M08/M09 A3028 RMK A01 T10811086  RH  096%=      5-min Rain = 0
KFAS 090845Z 29003KT M08/M09 A3029 RMK A01 T10841090  RH  096%=      5-min Rain = 0
KFAS 090850Z 28003KT M08/M09 A3029 RMK A01 T10841089  RH  096%=      5-min Rain = 0
KFAS 090855Z 26003KT M08/M09 A3029 RMK A01 T10841088  RH  096%=      5-min Rain = 0
KFAS 090900Z 25003KT M08/M09 A3029 RMK A01 T10821086  RH  097%=      5-min Rain = 0
KFAS 090905Z 26003KT M08/M08 A3029 RMK A01 T10801084  RH  097%=      5-min Rain = 0
KFAS 090910Z 28003KT M07/M08 A3029 RMK A01 T10741077  RH  097%=      5-min Rain = 0
KFAS 090915Z 28002KT M07/M07 A3029 RMK A01 T10681071  RH  098%=      5-min Rain = 0
KFAS 090920Z 29003KT M07/M08 A3029 RMK A01 T10721075  RH  097%=      5-min Rain = 0
KFAS 090925Z 28002KT M07/M08 A3029 RMK A01 T10721076  RH  097%=      5-min Rain = 0
KFAS 090930Z 29003KT M07/M07 A3029 RMK A01 T10691073  RH  097%=      5-min Rain = 0
KFAS 090935Z 29004KT M07/M07 A3029 RMK A01 T10681072  RH  097%=      5-min Rain = 0
KFAS 090940Z 29004KT M07/M08 A3029 RMK A01 T10721076  RH  097%=      5-min Rain = 0
KFAS 090945Z 30005KT M07/M08 A3029 RMK A01 T10721076  RH  097%=      5-min Rain = 0
KFAS 090950Z 30004KT M08/M08 A3029 RMK A01 T10751080  RH  096%=      5-min Rain = 0
KFAS 090955Z 30004KT M08/M08 A3029 RMK A01 T10751080  RH  097%=      5-min Rain = 0
KFAS 091000Z 30004KT M08/M08 A3029 RMK A01 T10751079  RH  097%=      5-min Rain = 0
KFAS 091005Z 30004KT M07/M08 A3028 RMK A01 T10731077  RH  097%=      5-min Rain = 0
KFAS 091010Z 30004KT M07/M08 A3028 RMK A01 T10721075  RH  097%=      5-min Rain = 0
KFAS 091015Z 29004KT M08/M08 A3028 RMK A01 T10751079  RH  097%=      5-min Rain = 0
KFAS 091020Z 29005KT M08/M08 A3029 RMK A01 T10781083  RH  096%=      5-min Rain = 0
KFAS 091025Z 29005KT M08/M08 A3029 RMK A01 T10791083  RH  096%=      5-min Rain = 0
KFAS 091030Z 28005KT M08/M08 A3029 RMK A01 T10761080  RH  097%=      5-min Rain = 0
KFAS 091035Z 27005KT M08/M08 A3029 RMK A01 T10771081  RH  097%=      5-min Rain = 0
KFAS 091040Z 28005KT M08/M08 A3029 RMK A01 T10781083  RH  096%=      5-min Rain = 0
KFAS 091045Z 28005KT M08/M08 A3029 RMK A01 T10771082  RH  097%=      5-min Rain = 0
KFAS 091050Z 28004KT M08/M08 A3029 RMK A01 T10771082  RH  097%=      5-min Rain = 0
KFAS 091055Z 28005KT M08/M08 A3029 RMK A01 T10781082  RH  096%=      5-min Rain = 0
KFAS 091100Z 27005KT M08/M08 A3029 RMK A01 T10781083  RH  096%=      5-min Rain = 0
KFAS 091105Z 26005KT M08/M08 A3029 RMK A01 T10791084  RH  096%=      5-min Rain = 0
KFAS 091110Z 27005KT M08/M08 A3029 RMK A01 T10791083  RH  096%=      5-min Rain = 0
KFAS 091115Z 29005KT M08/M08 A3028 RMK A01 T10781082  RH  096%=      5-min Rain = 0
KFAS 091120Z 28005KT M08/M08 A3028 RMK A01 T10771081  RH  097%=      5-min Rain = 0
KFAS 091125Z 28005KT M08/M08 A3028 RMK A01 T10771081  RH  097%=      5-min Rain = 0
KFAS 091130Z 28005KT M08/M08 A3028 RMK A01 T10761081  RH  096%=      5-min Rain = 0
KFAS 091135Z 27004KT M08/M08 A3028 RMK A01 T10751080  RH  097%=      5-min Rain = 0
KFAS 091140Z 27004KT M08/M08 A3029 RMK A01 T10751079  RH  097%=      5-min Rain = 0
KFAS 091145Z 28004KT M08/M08 A3029 RMK A01 T10751080  RH  096%=      5-min Rain = 0
KFAS 091150Z 28004KT M08/M08 A3029 RMK A01 T10781083  RH  096%=      5-min Rain = 0
KFAS 091155Z 27005KT M08/M09 A3029 RMK A01 T10791085  RH  096%=      5-min Rain = 0
KFAS 091200Z 27005KT M08/M09 A3029 RMK A01 T10811086  RH  096%=      5-min Rain = 0
KFAS 091205Z 28005KT M08/M09 A3029 RMK A01 T10801085  RH  096%=      5-min Rain = 0
KFAS 091210Z 29004KT M08/M09 A3029 RMK A01 T10811086  RH  096%=      5-min Rain = 0
KFAS 091215Z 29004KT M08/M09 A3029 RMK A01 T10821088  RH  096%=      5-min Rain = 0
KFAS 091220Z 29004KT M09/M09 A3029 RMK A01 T10851091  RH  095%=      5-min Rain = 0
KFAS 091225Z 29004KT M09/M09 A303 RMK A01 T10871093  RH  095%=      5-min Rain = 0
KFAS 091230Z 29004KT M09/M09 A303 RMK A01 T10861091  RH  096%=      5-min Rain = 0
KFAS 091235Z 30005KT M09/M09 A303 RMK A01 T10861091  RH  096%=      5-min Rain = 0
KFAS 091240Z 29005KT M09/M09 A303 RMK A01 T10861091  RH  096%=      5-min Rain = 0
KFAS 091245Z 28005KT M09/M09 A303 RMK A01 T10861091  RH  096%=      5-min Rain = 0
KFAS 091250Z 26006KT M09/M09 A303 RMK A01 T10851090  RH  096%=      5-min Rain = 0
KFAS 091255Z 27005KT M09/M09 A3031 RMK A01 T10851090  RH  096%=      5-min Rain = 0
KFAS 091300Z 27005KT M08/M09 A303 RMK A01 T10831088  RH  096%=      5-min Rain = 0
KFAS 091305Z 28005KT M08/M09 A3031 RMK A01 T10821087  RH  096%=      5-min Rain = 0
KFAS 091310Z 27005KT M08/M09 A3031 RMK A01 T10811086  RH  096%=      5-min Rain = 0
KFAS 091315Z 27005KT M08/M09 A3032 RMK A01 T10801086  RH  096%=      5-min Rain = 0
KFAS 091320Z 27005KT M08/M08 A3032 RMK A01 T10791084  RH  096%=      5-min Rain = 0
KFAS 091325Z 27005KT M08/M09 A3032 RMK A01 T10801085  RH  096%=      5-min Rain = 0
KFAS 091330Z 27004KT M08/M09 A3033 RMK A01 T10811086  RH  096%=      5-min Rain = 0
KFAS 091335Z 27004KT M08/M09 A3033 RMK A01 T10821088  RH  095%=      5-min Rain = 0
KFAS 091340Z 27004KT M08/M09 A3033 RMK A01 T10831089  RH  095%=      5-min Rain = 0
KFAS 091345Z 28004KT M08/M09 A3033 RMK A01 T10811086  RH  096%=      5-min Rain = 0
KFAS 091350Z 28004KT M08/M09 A3034 RMK A01 T10801085  RH  096%=      5-min Rain = 0
KFAS 091355Z 28004KT M08/M09 A3034 RMK A01 T10791085  RH  096%=      5-min Rain = 0
KFAS 091400Z 27003KT M08/M08 A3034 RMK A01 T10791084  RH  096%=      5-min Rain = 0
KFAS 091405Z 26003KT M08/M09 A3033 RMK A01 T10801085  RH  096%=      5-min Rain = 0
KFAS 091410Z 27003KT M08/M08 A3034 RMK A01 T10781083  RH  096%=      5-min Rain = 0
KFAS 091415Z 30002KT M08/M08 A3034 RMK A01 T10751080  RH  096%=      5-min Rain = 0
KFAS 091420Z 31002KT M07/M08 A3034 RMK A01 T10711076  RH  096%=      5-min Rain = 0
KFAS 091425Z 31002KT M07/M07 A3034 RMK A01 T10681073  RH  096%=      5-min Rain = 0
KFAS 091430Z 31001KT M07/M07 A3034 RMK A01 T10651070  RH  096%=      5-min Rain = 0
KFAS 091435Z 25002KT M06/M07 A3034 RMK A01 T10611067  RH  096%=      5-min Rain = 0
KFAS 091440Z 24002KT M06/M06 A3035 RMK A01 T10581063  RH  096%=      5-min Rain = 0
KFAS 091445Z 24003KT M05/M06 A3035 RMK A01 T10541059  RH  096%=      5-min Rain = 0
KFAS 091450Z 24003KT M05/M05 A3035 RMK A01 T10491054  RH  096%=      5-min Rain = 0
KFAS 091455Z 26002KT M04/M05 A3035 RMK A01 T10441049  RH  096%=      5-min Rain = 0
KFAS 091500Z 27002KT M04/M04 A3035 RMK A01 T10381044  RH  096%=      5-min Rain = 0
KFAS 091505Z 27003KT M04/M04 A3035 RMK A01 T10351041  RH  096%=      5-min Rain = 0
KFAS 091510Z 28003KT M03/M04 A3036 RMK A01 T10321039  RH  096%=      5-min Rain = 0
KFAS 091515Z 29002KT M03/M04 A3036 RMK A01 T10291036  RH  095%=      5-min Rain = 0
KFAS 091520Z 28002KT M03/M03 A3036 RMK A01 T10261033  RH  095%=      5-min Rain = 0
KFAS 091525Z 30002KT M02/M03 A3036 RMK A01 T10241032  RH  095%=      5-min Rain = 0
KFAS 091530Z 32002KT M02/M03 A3036 RMK A01 T10211028  RH  095%=      5-min Rain = 0
KFAS 091535Z 33002KT M02/M02 A3036 RMK A01 T10171024  RH  095%=      5-min Rain = 0
KFAS 091540Z 35002KT M01/M02 A3036 RMK A01 T10111019  RH  095%=      5-min Rain = 0
KFAS 091545Z 34002KT M01/M01 A3036 RMK A01 T10061014  RH  095%=      5-min Rain = 0
KFAS 091550Z 34002KT M00/M01 A3037 RMK A01 T10011009  RH  095%=      5-min Rain = 0
KFAS 091555Z 33002KT 00/M01 A3037 RMK A01 T00021007  RH  094%=      5-min Rain = 0
KFAS 091600Z 35002KT 00/M01 A3037 RMK A01 T00041006  RH  094%=      5-min Rain = 0
KFAS 091605Z 00000KT 01/M00 A3037 RMK A01 T00091001  RH  094%=      5-min Rain = 0
KFAS 091610Z 01003KT 01/M00 A3037 RMK A01 T00121001  RH  092%=      5-min Rain = 0
KFAS 091615Z 03003KT 01/M00 A3037 RMK A01 T00121004  RH  090%=      5-min Rain = 0
KFAS 091620Z 04003KT 02/M00 A3037 RMK A01 T00151002  RH  089%=      5-min Rain = 0
KFAS 091625Z 02002KT 02/M00 A3037 RMK A01 T00191001  RH  088%=      5-min Rain = 0
KFAS 091630Z 02003KT 02/M00 A3037 RMK A01 T00211001  RH  086%=      5-min Rain = 0
KFAS 091635Z 35002KT 02/00 A3038 RMK A01 T00240000  RH  085%=      5-min Rain = 0
KFAS 091640Z 03002KT 03/M00 A3038 RMK A01 T00271001  RH  083%=      5-min Rain = 0
KFAS 091645Z 36003KT 03/M00 A3038 RMK A01 T00291002  RH  081%=      5-min Rain = 0
KFAS 091650Z 02004KT 03/M00 A3038 RMK A01 T00321004  RH  078%=      5-min Rain = 0
KFAS 091655Z 01004KT 04/M01 A3038 RMK A01 T00351005  RH  076%=      5-min Rain = 0
KFAS 091700Z 01004KT 04/M01 A3038 RMK A01 T00371007  RH  074%=      5-min Rain = 0
KFAS 091705Z 01004KT 04/M01 A3038 RMK A01 T00381006  RH  073%=      5-min Rain = 0
KFAS 091710Z 36004KT 04/M01 A3038 RMK A01 T00411008  RH  071%=      5-min Rain = 0
KFAS 091715Z 02004KT 04/M01 A3038 RMK A01 T00421009  RH  070%=      5-min Rain = 0
KFAS 091720Z 02003KT 04/M01 A3038 RMK A01 T00441008  RH  070%=      5-min Rain = 0
KFAS 091725Z 35003KT 05/M01 A3037 RMK A01 T00461010  RH  068%=      5-min Rain = 0
KFAS 091730Z 02004KT 05/M01 A3037 RMK A01 T00481011  RH  067%=      5-min Rain = 0
KFAS 091735Z 03004KT 05/M01 A3037 RMK A01 T00501012  RH  065%=      5-min Rain = 0
KFAS 091740Z 01003KT 05/M01 A3037 RMK A01 T00521014  RH  063%=      5-min Rain = 0
KFAS 091745Z 01002KT 05/M01 A3037 RMK A01 T00541013  RH  062%=      5-min Rain = 0
KFAS 091750Z 05004KT 06/M02 A3037 RMK A01 T00561017  RH  060%=      5-min Rain = 0
KFAS 091755Z 32002KT 06/M02 A3037 RMK A01 T00571016  RH  060%=      5-min Rain = 0
KFAS 091800Z 03003KT 06/M01 A3037 RMK A01 T00581014  RH  060%=      5-min Rain = 0
KFAS 091805Z 00003KT 06/M02 A3037 RMK A01 T00601017  RH  058%=      5-min Rain = 0
KFAS 091810Z 36004KT 06/M02 A3036 RMK A01 T00601015  RH  059%=      5-min Rain = 0
KFAS 091815Z 03003KT 06/M01 A3036 RMK A01 T00591014  RH  060%=      5-min Rain = 0
KFAS 091820Z 35003KT 06/M01 A3036 RMK A01 T00601013  RH  060%=      5-min Rain = 0
KFAS 091825Z 33003KT 06/M01 A3035 RMK A01 T00611014  RH  059%=      5-min Rain = 0
KFAS 091830Z 32003KT 06/M01 A3035 RMK A01 T00631013  RH  059%=      5-min Rain = 0
KFAS 091835Z 33004KT 06/M01 A3035 RMK A01 T00641014  RH  058%=      5-min Rain = 0
KFAS 091840Z 35003KT 07/M02 A3034 RMK A01 T00681015  RH  056%=      5-min Rain = 0
KFAS 091845Z 33003G8KT 07/M01 A3034 RMK A01 T00701014  RH  056%=      5-min Rain = 0
KFAS 091850Z 33003KT 07/M01 A3034 RMK A01 T00691014  RH  056%=      5-min Rain = 0
KFAS 091855Z 01003KT 07/M01 A3034 RMK A01 T00721013  RH  055%=      5-min Rain = 0
KFAS 091900Z 04003KT 07/M02 A3034 RMK A01 T00721015  RH  054%=      5-min Rain = 0
KFAS 091905Z 01002KT 07/M02 A3033 RMK A01 T00731015  RH  054%=      5-min Rain = 0
KFAS 091910Z 04003KT 08/M02 A3033 RMK A01 T00751015  RH  053%=      5-min Rain = 0
KFAS 091915Z 04004KT 08/M02 A3033 RMK A01 T00761015  RH  053%=      5-min Rain = 0
KFAS 091920Z 03003KT 08/M02 A3033 RMK A01 T00791015  RH  052%=      5-min Rain = 0
KFAS 091925Z 35004KT 08/M02 A3033 RMK A01 T00791018  RH  051%=      5-min Rain = 0
KFAS 091930Z 00003KT 08/M02 A3033 RMK A01 T00811017  RH  050%=      5-min Rain = 0
KFAS 091935Z 02001KT 08/M02 A3033 RMK A01 T00841016  RH  050%=      5-min Rain = 0
KFAS 091940Z 33004KT 09/M02 A3033 RMK A01 T00861018  RH  048%=      5-min Rain = 0
KFAS 091945Z 34004KT 08/M02 A3033 RMK A01 T00841019  RH  049%=      5-min Rain = 0
KFAS 091950Z 27001KT 08/M02 A3032 RMK A01 T00821019  RH  049%=      5-min Rain = 0
KFAS 091955Z 02002KT 09/M02 A3032 RMK A01 T00861019  RH  048%=      5-min Rain = 0
KFAS 092000Z 33003KT 09/M02 A3032 RMK A01 T00861021  RH  047%=      5-min Rain = 0
KFAS 092005Z 02004KT 09/M02 A3032 RMK A01 T00881020  RH  047%=      5-min Rain = 0
KFAS 092010Z 04005KT 09/M02 A3032 RMK A01 T00881021  RH  047%=      5-min Rain = 0
KFAS 092015Z 34007KT 09/M02 A3032 RMK A01 T00881020  RH  047%=      5-min Rain = 0
KFAS 092020Z 00004KT 09/M02 A3032 RMK A01 T00891021  RH  046%=      5-min Rain = 0
KFAS 092025Z 32004KT 09/M02 A3032 RMK A01 T00881021  RH  047%=      5-min Rain = 0
KFAS 092030Z 34002G7KT 09/M02 A3031 RMK A01 T00911019  RH  046%=      5-min Rain = 0
KFAS 092035Z 33004KT 09/M02 A3031 RMK A01 T00911021  RH  046%=      5-min Rain = 0
KFAS 092040Z 01002KT 09/M02 A3031 RMK A01 T00921024  RH  044%=      5-min Rain = 0
KFAS 092045Z 03004KT 09/M03 A3031 RMK A01 T00921025  RH  044%=      5-min Rain = 0
KFAS 092050Z 36006G15KT 09/M03 A3031 RMK A01 T00921026  RH  044%=      5-min Rain = 0
KFAS 092055Z 31006KT 10/M03 A3031 RMK A01 T00951029  RH  042%=      5-min Rain = 0
KFAS 092100Z 31005KT 09/M03 A3031 RMK A01 T00941031  RH  042%=      5-min Rain = 0
KFAS 092105Z 32004KT 09/M03 A3031 RMK A01 T00941031  RH  041%=      5-min Rain = 0
KFAS 092110Z 35004KT 09/M03 A3031 RMK A01 T00931031  RH  042%=      5-min Rain = 0
KFAS 092115Z 28003KT 09/M03 A3031 RMK A01 T00941028  RH  042%=      5-min Rain = 0
KFAS 092120Z 33004KT 10/M03 A3031 RMK A01 T00961028  RH  042%=      5-min Rain = 0
KFAS 092125Z 32004KT 09/M03 A3031 RMK A01 T00941028  RH  042%=      5-min Rain = 0
KFAS 092130Z 34003KT 09/M03 A3031 RMK A01 T00931030  RH  042%=      5-min Rain = 0
KFAS 092135Z 35005KT 09/M03 A3031 RMK A01 T00931030  RH  042%=      5-min Rain = 0
KFAS 092140Z 35005KT 09/M03 A3031 RMK A01 T00941033  RH  041%=      5-min Rain = 0
KFAS 092145Z 34005KT 10/M03 A3031 RMK A01 T00951033  RH  041%=      5-min Rain = 0
KFAS 092150Z 32004KT 09/M04 A3031 RMK A01 T00941035  RH  040%=      5-min Rain = 0
KFAS 092155Z 34004KT 09/M04 A3031 RMK A01 T00931035  RH  041%=      5-min Rain = 0
KFAS 092200Z 33002KT 09/M03 A3031 RMK A01 T00941034  RH  041%=      5-min Rain = 0
KFAS 092205Z 34004KT 10/M04 A3031 RMK A01 T00951035  RH  040%=      5-min Rain = 0
KFAS 092210Z 01003KT 09/M04 A3031 RMK A01 T00921035  RH  041%=      5-min Rain = 0
KFAS 092215Z 01003KT 09/M04 A3031 RMK A01 T00931036  RH  040%=      5-min Rain = 0
KFAS 092220Z 32004KT 09/M04 A3031 RMK A01 T00941037  RH  040%=      5-min Rain = 0
KFAS 092225Z 34003KT 09/M04 A3031 RMK A01 T00931039  RH  039%=      5-min Rain = 0
KFAS 092230Z 01002KT 09/M04 A3031 RMK A01 T00921039  RH  040%=      5-min Rain = 0
KFAS 092235Z 04001KT 09/M04 A3031 RMK A01 T00931038  RH  040%=      5-min Rain = 0
KFAS 092240Z 05002KT 09/M04 A3031 RMK A01 T00931038  RH  040%=      5-min Rain = 0
KFAS 092245Z 03002KT 09/M04 A3031 RMK A01 T00921039  RH  040%=      5-min Rain = 0
KFAS 092250Z 36003KT 09/M05 A3031 RMK A01 T00911046  RH  038%=      5-min Rain = 0
KFAS 092255Z 35003KT 09/M05 A3031 RMK A01 T00891048  RH  038%=      5-min Rain = 0
KFAS 092300Z 02001KT 09/M05 A3031 RMK A01 T00881047  RH  038%=      5-min Rain = 0
KFAS 092305Z 35001KT 09/M05 A3031 RMK A01 T00881047  RH  038%=      5-min Rain = 0
KFAS 092310Z 01001KT 09/M05 A3031 RMK A01 T00881048  RH  038%=      5-min Rain = 0
KFAS 092315Z 04002KT 09/M05 A3031 RMK A01 T00871048  RH  038%=      5-min Rain = 0
KFAS 092320Z 06004KT 08/M04 A3031 RMK A01 T00791044  RH  042%=      5-min Rain = 0
KFAS 092325Z 07005KT 07/M04 A3032 RMK A01 T00691039  RH  046%=      5-min Rain = 0
KFAS 092330Z 07006KT 06/M04 A3032 RMK A01 T00601039  RH  049%=      5-min Rain = 0
KFAS 092335Z 07006KT 05/M04 A3032 RMK A01 T00531042  RH  050%=      5-min Rain = 0
KFAS 092340Z 07006KT 05/M04 A3032 RMK A01 T00501043  RH  051%=      5-min Rain = 0
KFAS 092345Z 08005KT 05/M04 A3032 RMK A01 T00481044  RH  052%=      5-min Rain = 0
KFAS 092350Z 07006KT 05/M05 A3032 RMK A01 T00481045  RH  051%=      5-min Rain = 0
KFAS 092355Z 07007KT 04/M05 A3032 RMK A01 T00441048  RH  051%=      5-min Rain = 0
KFAS 100000Z 07007KT 04/M05 A3033 RMK A01 T00421050  RH  051%=      5-min Rain = 0
KFAS 100005Z 06007KT 04/M05 A3033 RMK A01 T00431052  RH  050%=      5-min Rain = 0
KFAS 100010Z 06007KT 04/M05 A3033 RMK A01 T00421052  RH  050%=      5-min Rain = 0
KFAS 100015Z 06007KT 04/M05 A3033 RMK A01 T00401052  RH  051%=      5-min Rain = 0
KFAS 100020Z 06006KT 04/M05 A3034 RMK A01 T00351053  RH  053%=      5-min Rain = 0
KFAS 100025Z 06007KT 03/M05 A3034 RMK A01 T00301054  RH  054%=      5-min Rain = 0
KFAS 100030Z 05008KT 03/M05 A3034 RMK A01 T00271054  RH  055%=      5-min Rain = 0
KFAS 100035Z 04007KT 02/M06 A3035 RMK A01 T00201060  RH  056%=      5-min Rain = 0
KFAS 100040Z 04008KT 00/M06 A3035 RMK A01 T00041064  RH  061%=      5-min Rain = 0
KFAS 100045Z 04008KT 00/M06 A3035 RMK A01 T00041060  RH  062%=      5-min Rain = 0
KFAS 100050Z 03006KT 00/M06 A3035 RMK A01 T00041062  RH  061%=      5-min Rain = 0
KFAS 100055Z 03006KT M00/M06 A3035 RMK A01 T10011063  RH  063%=      5-min Rain = 0
KFAS 100100Z 03006KT M00/M06 A3035 RMK A01 T10041063  RH  064%=      5-min Rain = 0
KFAS 100105Z 03006KT M01/M07 A3035 RMK A01 T10051065  RH  064%=      5-min Rain = 0
KFAS 100110Z 02006KT M01/M07 A3035 RMK A01 T10071067  RH  064%=      5-min Rain = 0
KFAS 100115Z 02006KT M01/M07 A3035 RMK A01 T10091069  RH  064%=      5-min Rain = 0
KFAS 100120Z 02007KT M01/M07 A3036 RMK A01 T10111071  RH  064%=      5-min Rain = 0
KFAS 100125Z 02007KT M01/M07 A3036 RMK A01 T10141073  RH  064%=      5-min Rain = 0
KFAS 100130Z 03006KT M01/M07 A3036 RMK A01 T10141074  RH  064%=      5-min Rain = 0
KFAS 100135Z 03008KT M01/M07 A3036 RMK A01 T10131074  RH  063%=      5-min Rain = 0
KFAS 100140Z 03008KT M01/M07 A3036 RMK A01 T10071074  RH  061%=      5-min Rain = 0
KFAS 100145Z 04007KT M00/M07 A3036 RMK A01 T10021074  RH  058%=      5-min Rain = 0
KFAS 100150Z 04008KT M00/M08 A3036 RMK A01 T10011075  RH  057%=      5-min Rain = 0
KFAS 100155Z 04007KT M00/M08 A3037 RMK A01 T10041077  RH  058%=      5-min Rain = 0
KFAS 100200Z 04005KT M01/M08 A3037 RMK A01 T10101077  RH  060%=      5-min Rain = 0
KFAS 100205Z 09001KT M01/M08 A3036 RMK A01 T10141080  RH  061%=      5-min Rain = 0
KFAS 100210Z 11002KT M01/M08 A3036 RMK A01 T10101080  RH  059%=      5-min Rain = 0
KFAS 100215Z 14003KT M02/M08 A3036 RMK A01 T10171082  RH  061%=      5-min Rain = 0
KFAS 100220Z 12003KT M03/M08 A3036 RMK A01 T10271083  RH  065%=      5-min Rain = 0
KFAS 100225Z 13002KT M03/M08 A3037 RMK A01 T10281080  RH  067%=      5-min Rain = 0
KFAS 100230Z 16002KT M03/M08 A3037 RMK A01 T10291078  RH  069%=      5-min Rain = 0
KFAS 100235Z 15003KT M02/M07 A3037 RMK A01 T10241070  RH  071%=      5-min Rain = 0
KFAS 100240Z 13003KT M02/M07 A3037 RMK A01 T10231068  RH  071%=      5-min Rain = 0
KFAS 100245Z 13003KT M03/M08 A3037 RMK A01 T10301076  RH  070%=      5-min Rain = 0
KFAS 100250Z 17005KT M04/M08 A3037 RMK A01 T10371078  RH  073%=      5-min Rain = 0
KFAS 100255Z 17005KT M04/M08 A3037 RMK A01 T10401076  RH  076%=      5-min Rain = 0
KFAS 100300Z 16004KT M04/M07 A3037 RMK A01 T10381072  RH  077%=      5-min Rain = 0
KFAS 100305Z 17005KT M04/M07 A3037 RMK A01 T10381072  RH  077%=      5-min Rain = 0
KFAS 100310Z 17004KT M04/M07 A3037 RMK A01 T10391071  RH  078%=      5-min Rain = 0
KFAS 100315Z 18004KT M04/M07 A3037 RMK A01 T10411073  RH  078%=      5-min Rain = 0
KFAS 100320Z 20004KT M04/M07 A3037 RMK A01 T10431072  RH  080%=      5-min Rain = 0
KFAS 100325Z 22005KT M04/M07 A3037 RMK A01 T10361068  RH  079%=      5-min Rain = 0
KFAS 100330Z 22005KT M04/M07 A3037 RMK A01 T10351070  RH  077%=      5-min Rain = 0
KFAS 100335Z 22006KT M04/M07 A3037 RMK A01 T10381074  RH  076%=      5-min Rain = 0
KFAS 100340Z 23005KT M04/M08 A3037 RMK A01 T10431077  RH  077%=      5-min Rain = 0
KFAS 100345Z 25004KT M04/M08 A3037 RMK A01 T10441075  RH  079%=      5-min Rain = 0
KFAS 100350Z 26004KT M04/M07 A3037 RMK A01 T10431074  RH  079%=      5-min Rain = 0
KFAS 100355Z 26005KT M04/M07 A3038 RMK A01 T10431074  RH  079%=      5-min Rain = 0
KFAS 100400Z 27005KT M05/M08 A3038 RMK A01 T10461077  RH  079%=      5-min Rain = 0
KFAS 100405Z 27005KT M05/M08 A3038 RMK A01 T10481079  RH  079%=      5-min Rain = 0
KFAS 100410Z 27005KT M05/M08 A3038 RMK A01 T10501080  RH  080%=      5-min Rain = 0
KFAS 100415Z 27006KT M05/M08 A3038 RMK A01 T10511078  RH  081%=      5-min Rain = 0
KFAS 100420Z 26005KT M05/M08 A3038 RMK A01 T10501078  RH  081%=      5-min Rain = 0
KFAS 100425Z 27003KT M05/M08 A3038 RMK A01 T10511078  RH  081%=      5-min Rain = 0
KFAS 100430Z 27003KT M05/M08 A3038 RMK A01 T10511079  RH  080%=      5-min Rain = 0
KFAS 100435Z 27003KT M05/M08 A3038 RMK A01 T10541082  RH  081%=      5-min Rain = 0
KFAS 100440Z 27004KT M06/M08 A3038 RMK A01 T10551081  RH  082%=      5-min Rain = 0
KFAS 100445Z 25005KT M06/M08 A3037 RMK A01 T10551081  RH  082%=      5-min Rain = 0
KFAS 100450Z 27005KT M06/M08 A3038 RMK A01 T10571084  RH  081%=      5-min Rain = 0
KFAS 100455Z 26005KT M06/M08 A3038 RMK A01 T10561080  RH  083%=      5-min Rain = 0
KFAS 100500Z 28005KT M06/M08 A3038 RMK A01 T10551082  RH  081%=      5-min Rain = 0
KFAS 100505Z 27005KT M06/M09 A3038 RMK A01 T10611087  RH  082%=      5-min Rain = 0
KFAS 100510Z 27005KT M06/M09 A3038 RMK A01 T10631086  RH  084%=      5-min Rain = 0
KFAS 100515Z 27004KT M06/M08 A3038 RMK A01 T10611083  RH  084%=      5-min Rain = 0
KFAS 100520Z 27004KT M06/M08 A3038 RMK A01 T10601083  RH  084%=      5-min Rain = 0
KFAS 100525Z 27004KT M06/M08 A3038 RMK A01 T10591083  RH  083%=      5-min Rain = 0
KFAS 100530Z 32004KT M07/M09 A3038 RMK A01 T10651091  RH  082%=      5-min Rain = 0
KFAS 100535Z 33003KT M07/M09 A3038 RMK A01 T10701091  RH  085%=      5-min Rain = 0
KFAS 100540Z 31003KT M07/M09 A3038 RMK A01 T10701089  RH  086%=      5-min Rain = 0
KFAS 100545Z 28004KT M07/M09 A3038 RMK A01 T10701088  RH  086%=      5-min Rain = 0
KFAS 100550Z 27004KT M07/M09 A3038 RMK A01 T10691088  RH  086%=      5-min Rain = 0
KFAS 100555Z 29003KT M07/M09 A3038 RMK A01 T10701089  RH  086%=      5-min Rain = 0

Page generated in 0.0093 seconds.